createdAt,value
2019-04-05T00:01:59.578Z,55.98
2019-04-05T00:04:26.282Z,55.90
2019-04-05T00:06:52.897Z,57.00
2019-04-05T00:09:19.594Z,58.14
2019-04-05T00:11:46.207Z,58.07
2019-04-05T00:14:12.806Z,58.09
2019-04-05T00:16:39.463Z,58.22
2019-04-05T00:19:06.081Z,57.23
2019-04-05T00:21:32.692Z,58.12
2019-04-05T00:23:59.389Z,57.27
2019-04-05T00:26:27.062Z,57.25
2019-04-05T00:28:53.797Z,59.20
2019-04-05T00:31:20.479Z,58.70
2019-04-05T00:33:47.179Z,58.05
2019-04-05T00:36:13.799Z,56.87
2019-04-05T00:38:40.511Z,57.82
2019-04-05T00:41:07.148Z,59.37
2019-04-05T00:43:33.804Z,60.46
2019-04-05T00:46:00.493Z,60.49
2019-04-05T00:48:27.156Z,61.88
2019-04-05T00:50:53.814Z,62.04
2019-04-05T00:53:20.515Z,60.97
2019-04-05T00:55:47.114Z,62.22
2019-04-05T00:58:13.807Z,61.52
2019-04-05T01:00:40.464Z,62.51
2019-04-05T01:03:07.084Z,63.01
2019-04-05T01:05:33.926Z,62.59
2019-04-05T01:08:00.711Z,61.71
2019-04-05T01:10:27.420Z,59.33
2019-04-05T01:12:54.702Z,59.69
2019-04-05T01:15:21.414Z,56.10
2019-04-05T01:17:48.331Z,56.52
2019-04-05T01:20:14.983Z,56.03
2019-04-05T01:22:43.760Z,55.70
2019-04-05T01:25:10.571Z,55.40
2019-04-05T01:27:39.154Z,55.86
2019-04-05T01:30:08.360Z,55.95
2019-04-05T01:32:34.969Z,56.14
2019-04-05T01:35:01.629Z,56.32
2019-04-05T01:37:28.459Z,55.91
2019-04-05T01:39:55.352Z,56.18
2019-04-05T01:42:22.754Z,56.00
2019-04-05T01:44:51.827Z,56.79
2019-04-05T01:47:17.954Z,56.43
2019-04-05T01:49:44.566Z,56.93
2019-04-05T01:52:11.257Z,56.22
2019-04-05T01:54:37.851Z,56.07
2019-04-05T01:57:04.478Z,56.02
2019-04-05T01:59:31.244Z,56.15
2019-04-05T02:01:58.057Z,56.37
2019-04-05T02:04:24.675Z,56.58
2019-04-05T02:06:52.343Z,57.13
2019-04-05T02:09:19.034Z,56.96
2019-04-05T02:11:45.758Z,57.54
2019-04-05T02:14:12.486Z,57.40
2019-04-05T02:16:39.074Z,58.09
2019-04-05T02:19:05.844Z,58.06
2019-04-05T02:21:32.517Z,59.11
2019-04-05T02:23:59.279Z,58.81
2019-04-05T02:26:26.008Z,59.00
2019-04-05T02:28:53.152Z,59.35
2019-04-05T02:31:19.887Z,59.42
2019-04-05T02:33:46.576Z,58.60
2019-04-05T02:36:13.309Z,59.35
2019-04-05T02:38:39.989Z,59.55
2019-04-05T02:41:07.341Z,60.55
2019-04-05T02:43:35.649Z,61.05
2019-04-05T02:46:03.053Z,61.18
2019-04-05T02:48:33.347Z,61.33
2019-04-05T02:51:03.050Z,61.76
2019-04-05T02:53:30.630Z,61.44
2019-04-05T02:55:57.712Z,60.83
2019-04-05T02:58:25.869Z,61.10
2019-04-05T03:00:52.691Z,61.27
2019-04-05T03:03:19.611Z,61.31
2019-04-05T03:05:46.605Z,61.34
2019-04-05T03:08:13.917Z,61.33
2019-04-05T03:11:02.634Z,61.82
2019-04-05T03:13:32.418Z,61.84
2019-04-05T03:16:02.619Z,61.64
2019-04-05T03:18:30.501Z,62.69
2019-04-05T03:21:00.820Z,63.17
2019-04-05T03:23:29.974Z,63.42
2019-04-05T03:26:00.248Z,63.42
2019-04-05T03:28:28.927Z,63.93
2019-04-05T03:30:55.573Z,64.00
2019-04-05T03:33:22.336Z,64.53
2019-04-05T03:35:49.218Z,64.23
2019-04-05T03:38:16.947Z,64.86
2019-04-05T03:40:44.101Z,64.32
2019-04-05T03:43:11.254Z,64.86
2019-04-05T03:45:38.188Z,64.78
2019-04-05T03:48:04.873Z,63.98
2019-04-05T03:50:31.836Z,64.60
2019-04-05T03:52:58.449Z,65.02
2019-04-05T03:55:25.115Z,64.99
2019-04-05T03:57:51.993Z,64.91
2019-04-05T04:00:18.743Z,65.29
2019-04-05T04:02:45.560Z,65.21
2019-04-05T04:05:12.302Z,64.72
2019-04-05T04:07:38.941Z,65.14
2019-04-05T04:10:09.200Z,64.65
2019-04-05T04:12:35.998Z,65.19
2019-04-05T04:15:14.887Z,65.10
2019-04-05T04:17:43.343Z,64.70
2019-04-05T04:20:22.534Z,64.63
2019-04-05T04:22:49.296Z,64.77
2019-04-05T04:25:16.338Z,65.39
2019-04-05T04:27:43.372Z,65.18
2019-04-05T04:30:09.973Z,64.51
2019-04-05T04:32:37.255Z,64.98
2019-04-05T04:35:05.982Z,66.00
2019-04-05T04:37:32.906Z,66.18
2019-04-05T04:39:59.562Z,66.42
2019-04-05T04:42:26.347Z,66.25
2019-04-05T04:44:53.155Z,67.02
2019-04-05T04:47:26.802Z,66.94
2019-04-05T04:49:48.753Z,67.16
2019-04-05T04:52:15.980Z,66.43
2019-04-05T04:54:42.669Z,66.87
2019-04-05T04:57:09.388Z,66.80
2019-04-05T04:59:36.331Z,66.95
2019-04-05T05:02:03.574Z,67.02
2019-04-05T05:04:30.385Z,65.51
2019-04-05T05:06:57.094Z,66.33
2019-04-05T05:09:23.760Z,66.18
2019-04-05T05:11:50.545Z,66.45
2019-04-05T05:14:17.482Z,65.22
2019-04-05T05:16:44.310Z,64.60
2019-04-05T05:19:11.453Z,65.05
2019-04-05T05:21:38.204Z,64.05
2019-04-05T05:24:05.094Z,64.21
2019-04-05T05:26:31.949Z,64.38
2019-04-05T05:28:58.709Z,63.39
2019-04-05T05:31:25.397Z,63.10
2019-04-05T05:33:52.135Z,63.42
2019-04-05T05:36:19.568Z,63.14
2019-04-05T05:38:46.268Z,62.99
2019-04-05T05:41:12.982Z,61.13
2019-04-05T05:43:39.604Z,62.06
2019-04-05T05:46:06.279Z,62.78
2019-04-05T05:48:33.096Z,64.17
2019-04-05T05:50:59.726Z,64.66
2019-04-05T05:53:26.541Z,65.41
2019-04-05T05:55:53.200Z,67.42
2019-04-05T05:58:20.862Z,69.55
2019-04-05T06:00:47.509Z,69.40
2019-04-05T06:03:16.598Z,70.64
2019-04-05T06:05:42.726Z,71.08
2019-04-05T06:08:09.466Z,72.06
2019-04-05T06:10:36.138Z,72.08
2019-04-05T06:13:06.605Z,72.80
2019-04-05T06:15:31.403Z,73.68
2019-04-05T06:18:04.683Z,74.71
2019-04-05T06:20:26.743Z,75.30
2019-04-05T06:22:53.376Z,75.53
2019-04-05T06:25:20.150Z,75.75
2019-04-05T06:27:46.785Z,75.45
2019-04-05T06:30:13.422Z,75.12
2019-04-05T06:32:40.097Z,74.96
2019-04-05T06:35:07.582Z,75.07
2019-04-05T06:37:34.240Z,75.44
2019-04-05T06:40:00.951Z,76.20
2019-04-05T06:42:27.551Z,75.70
2019-04-05T06:44:54.242Z,75.86
2019-04-05T06:47:20.940Z,75.96
2019-04-05T06:49:47.632Z,75.88
2019-04-05T06:52:14.319Z,76.17
2019-04-05T06:54:41.030Z,76.51
2019-04-05T06:57:07.696Z,75.56
2019-04-05T06:59:34.349Z,75.34
2019-04-05T07:02:01.090Z,76.88
2019-04-05T07:04:30.815Z,75.59
2019-04-05T07:06:56.261Z,75.88
2019-04-05T07:09:22.930Z,75.78
2019-04-05T07:11:49.577Z,75.95
2019-04-05T07:14:16.265Z,77.27
2019-04-05T07:16:43.033Z,77.62
2019-04-05T07:19:09.619Z,77.73
2019-04-05T07:21:36.287Z,77.61
2019-04-05T07:24:03.045Z,77.42
2019-04-05T07:26:29.717Z,77.32
2019-04-05T07:28:56.437Z,76.66
2019-04-05T07:31:23.161Z,76.58
2019-04-05T07:33:49.876Z,76.79
2019-04-05T07:36:16.636Z,76.89
2019-04-05T07:38:43.356Z,76.80
2019-04-05T07:41:09.951Z,76.48
2019-04-05T07:43:36.624Z,77.23
2019-04-05T07:46:03.299Z,76.56
2019-04-05T07:48:30.978Z,76.85
2019-04-05T07:50:57.681Z,75.75
2019-04-05T07:53:24.410Z,77.17
2019-04-05T07:55:51.038Z,76.05
2019-04-05T07:58:17.651Z,76.18
2019-04-05T08:00:47.387Z,77.11
2019-04-05T08:03:14.150Z,75.15
2019-04-05T08:05:40.776Z,76.57
2019-04-05T08:08:11.055Z,76.20
2019-04-05T08:10:37.674Z,76.43
2019-04-05T08:13:05.203Z,76.67
2019-04-05T08:15:32.547Z,77.08
2019-04-05T08:17:59.162Z,77.92
2019-04-05T08:20:25.774Z,77.97
2019-04-05T08:22:52.442Z,78.52
2019-04-05T08:25:19.046Z,78.78
2019-04-05T08:27:45.656Z,78.55
2019-04-05T08:30:12.544Z,77.72
2019-04-05T08:32:39.214Z,78.01
2019-04-05T08:35:05.970Z,78.89
2019-04-05T08:37:32.757Z,77.88
2019-04-05T08:39:59.577Z,78.33
2019-04-05T08:42:27.285Z,78.36
2019-04-05T08:44:53.992Z,78.26
2019-04-05T08:47:22.438Z,78.44
2019-04-05T08:49:49.163Z,77.80
2019-04-05T08:52:15.852Z,77.66
2019-04-05T08:54:42.662Z,76.91
2019-04-05T08:57:09.347Z,78.56
2019-04-05T08:59:36.043Z,78.33
2019-04-05T09:02:02.662Z,79.63
2019-04-05T09:04:29.390Z,78.52
2019-04-05T09:06:56.082Z,79.74
2019-04-05T09:09:22.779Z,78.61
2019-04-05T09:11:49.520Z,78.89
2019-04-05T09:14:16.250Z,79.51
2019-04-05T09:16:42.874Z,80.06
2019-04-05T09:19:09.532Z,79.17
2019-04-05T09:21:40.491Z,79.11
2019-04-05T09:24:05.022Z,78.24
2019-04-05T09:26:31.744Z,78.86
2019-04-05T09:28:58.464Z,78.27
2019-04-05T09:31:25.079Z,78.32
2019-04-05T09:33:51.734Z,79.05
2019-04-05T09:36:18.472Z,78.40
2019-04-05T09:38:45.108Z,78.95
2019-04-05T09:41:11.741Z,79.56
2019-04-05T09:43:38.424Z,80.13
2019-04-05T09:46:05.054Z,79.87
2019-04-05T09:48:31.745Z,79.37
2019-04-05T09:50:58.696Z,80.06
2019-04-05T09:53:25.395Z,80.60
2019-04-05T09:55:52.083Z,80.79
2019-04-05T09:58:18.791Z,81.81
2019-04-05T10:00:45.390Z,82.04
2019-04-05T10:03:12.047Z,81.69
2019-04-05T10:05:38.741Z,82.17
2019-04-05T10:08:06.583Z,81.29
2019-04-05T10:10:33.269Z,81.53
2019-04-05T10:12:59.980Z,81.02
2019-04-05T10:15:29.700Z,80.75
2019-04-05T10:17:56.441Z,78.89
2019-04-05T10:20:23.135Z,75.93
2019-04-05T10:22:49.822Z,77.41
2019-04-05T10:25:16.516Z,77.13
2019-04-05T10:27:43.233Z,76.67
2019-04-05T10:30:11.052Z,76.74
2019-04-05T10:32:37.707Z,76.95
2019-04-05T10:35:04.577Z,77.00
2019-04-05T10:37:31.230Z,77.65
2019-04-05T10:39:58.022Z,77.25
2019-04-05T10:42:28.345Z,76.95
2019-04-05T10:44:54.970Z,76.50
2019-04-05T10:47:21.624Z,76.45
2019-04-05T10:49:48.324Z,75.82
2019-04-05T10:52:15.009Z,76.14
2019-04-05T10:54:41.720Z,75.44
2019-04-05T10:57:08.422Z,75.45
2019-04-05T10:59:35.134Z,74.73
2019-04-05T11:02:01.786Z,74.82
2019-04-05T11:04:28.450Z,73.74
2019-04-05T11:06:55.280Z,73.72
2019-04-05T11:09:21.929Z,73.53
2019-04-05T11:11:48.675Z,73.23
2019-04-05T11:14:15.290Z,73.07
2019-04-05T11:16:41.969Z,72.84
2019-04-05T11:19:08.662Z,73.15
2019-04-05T11:21:35.297Z,73.10
2019-04-05T11:24:01.923Z,73.07
2019-04-05T11:26:28.735Z,74.34
2019-04-05T11:28:55.327Z,73.69
2019-04-05T11:31:22.032Z,71.39
2019-04-05T11:33:49.913Z,72.24
2019-04-05T11:36:16.741Z,72.43
2019-04-05T11:38:44.369Z,74.27
2019-04-05T11:41:11.665Z,74.75
2019-04-05T11:43:39.109Z,74.37
2019-04-05T11:46:05.823Z,73.32
2019-04-05T11:48:33.420Z,73.18
2019-04-05T11:51:00.039Z,73.11
2019-04-05T11:53:26.719Z,73.65
2019-04-05T11:55:53.405Z,74.68
2019-04-05T11:58:20.099Z,74.92
2019-04-05T12:00:52.656Z,73.14
2019-04-05T12:03:21.203Z,73.70
2019-04-05T12:05:47.788Z,74.03
2019-04-05T12:08:14.449Z,73.64
2019-04-05T12:10:41.138Z,72.91
2019-04-05T12:13:07.784Z,72.41
2019-04-05T12:15:35.731Z,73.01
2019-04-05T12:18:04.535Z,71.72
2019-04-05T12:20:33.341Z,70.69
2019-04-05T12:23:00.452Z,71.34
2019-04-05T12:25:27.160Z,68.58
2019-04-05T12:28:05.673Z,70.70
2019-04-05T12:30:24.043Z,72.41
2019-04-05T12:32:50.725Z,69.91
2019-04-05T12:35:21.311Z,68.96
2019-04-05T12:37:50.441Z,67.76
2019-04-05T12:40:16.044Z,66.78
2019-04-05T12:42:43.661Z,66.94
2019-04-05T12:45:14.632Z,68.52
2019-04-05T12:47:39.440Z,68.29
2019-04-05T12:50:07.579Z,67.69
2019-04-05T12:52:34.218Z,68.25
2019-04-05T12:55:00.884Z,67.45
2019-04-05T12:57:27.793Z,67.06
2019-04-05T12:59:56.466Z,68.30
2019-04-05T13:02:32.979Z,66.60
2019-04-05T13:04:52.100Z,66.61
2019-04-05T13:07:20.712Z,65.72
2019-04-05T13:09:47.442Z,65.14
2019-04-05T13:12:14.003Z,66.97
2019-04-05T13:14:40.691Z,67.82
2019-04-05T13:17:07.386Z,67.81
2019-04-05T13:19:34.141Z,62.46
2019-04-05T13:22:02.781Z,65.43
2019-04-05T13:24:29.447Z,67.72
2019-04-05T13:26:56.058Z,70.57
2019-04-05T13:29:22.715Z,70.91
2019-04-05T13:31:49.383Z,73.10
2019-04-05T13:34:18.342Z,74.05
2019-04-05T13:36:44.700Z,74.54
2019-04-05T13:39:11.500Z,74.13
2019-04-05T13:41:38.110Z,75.29
2019-04-05T13:44:06.087Z,76.13
2019-04-05T13:46:32.903Z,74.62
2019-04-05T13:48:59.528Z,74.84
2019-04-05T13:51:30.431Z,74.69
2019-04-05T13:53:55.779Z,74.24
2019-04-05T13:56:22.463Z,75.05
2019-04-05T13:58:49.144Z,74.80
2019-04-05T14:01:15.892Z,74.63
2019-04-05T14:03:42.502Z,76.88
2019-04-05T14:06:10.709Z,75.24
2019-04-05T14:08:41.163Z,77.37
2019-04-05T14:11:08.398Z,77.81
2019-04-05T14:13:37.379Z,77.63
2019-04-05T14:16:06.197Z,76.47
2019-04-05T14:18:33.036Z,77.59
2019-04-05T14:20:59.658Z,77.13
2019-04-05T14:23:26.391Z,76.70
2019-04-05T14:25:53.030Z,77.59
2019-04-05T14:28:19.673Z,78.05
2019-04-05T14:30:46.321Z,77.41
2019-04-05T14:33:12.920Z,76.46
2019-04-05T14:35:39.599Z,77.12
2019-04-05T14:38:06.262Z,77.76
2019-04-05T14:40:33.209Z,77.90
2019-04-05T14:42:59.958Z,78.18
2019-04-05T14:45:26.754Z,77.76
2019-04-05T14:47:57.718Z,76.13
2019-04-05T14:50:22.944Z,77.64
2019-04-05T14:52:49.893Z,76.90
2019-04-05T14:55:16.799Z,76.21
2019-04-05T14:57:43.500Z,77.73
2019-04-05T15:00:10.522Z,79.00
2019-04-05T15:02:37.091Z,77.83
2019-04-05T15:05:05.678Z,78.66
2019-04-05T15:07:32.380Z,78.39
2019-04-05T15:09:59.092Z,77.72
2019-04-05T15:12:28.780Z,78.45
2019-04-05T15:14:54.435Z,76.33
2019-04-05T15:17:21.030Z,76.89
2019-04-05T15:19:47.702Z,75.86
2019-04-05T15:22:14.388Z,76.11
2019-04-05T15:24:41.038Z,76.45
2019-04-05T15:27:07.754Z,77.62
2019-04-05T15:29:34.428Z,78.20
2019-04-05T15:32:01.645Z,78.28
2019-04-05T15:34:29.190Z,78.55
2019-04-05T15:36:56.117Z,77.97
2019-04-05T15:39:22.732Z,77.80
2019-04-05T15:41:49.406Z,77.48
2019-04-05T15:44:16.090Z,77.94
2019-04-05T15:46:42.776Z,77.80
2019-04-05T15:49:09.487Z,78.22
2019-04-05T15:51:36.175Z,77.94
2019-04-05T15:54:02.893Z,78.43
2019-04-05T15:56:33.339Z,78.99
2019-04-05T15:58:58.166Z,79.35
2019-04-05T16:01:24.770Z,79.45
2019-04-05T16:03:51.368Z,78.80
2019-04-05T16:06:18.030Z,80.26
2019-04-05T16:08:44.643Z,78.91
2019-04-05T16:11:11.271Z,78.56
2019-04-05T16:13:38.068Z,78.31
2019-04-05T16:16:04.812Z,78.72
2019-04-05T16:18:31.399Z,78.49
2019-04-05T16:20:58.095Z,78.54
2019-04-05T16:23:24.709Z,79.14
2019-04-05T16:25:51.325Z,80.44
2019-04-05T16:28:18.051Z,79.98
2019-04-05T16:30:44.710Z,80.81
2019-04-05T16:33:11.335Z,80.88
2019-04-05T16:35:39.737Z,80.84
2019-04-05T16:38:06.431Z,80.78
2019-04-05T16:40:33.086Z,79.88
2019-04-05T16:43:02.897Z,80.03
2019-04-05T16:45:28.298Z,80.29
2019-04-05T16:47:55.886Z,80.58
2019-04-05T16:50:22.625Z,80.68
2019-04-05T16:52:49.250Z,80.53
2019-04-05T16:55:15.912Z,81.31
2019-04-05T16:57:42.601Z,81.52
2019-04-05T17:00:11.460Z,80.26
2019-04-05T17:02:38.400Z,80.22
2019-04-05T17:05:05.768Z,79.66
2019-04-05T17:07:32.486Z,80.05
2019-04-05T17:09:59.196Z,78.41
2019-04-05T17:12:26.897Z,77.76
2019-04-05T17:14:53.497Z,77.96
2019-04-05T17:17:20.178Z,77.78
2019-04-05T17:19:46.841Z,78.18
2019-04-05T17:22:13.536Z,77.92
2019-04-05T17:24:40.251Z,78.64
2019-04-05T17:27:06.948Z,78.10
2019-04-05T17:29:33.539Z,77.22
2019-04-05T17:32:00.198Z,75.71
2019-04-05T17:34:26.918Z,76.69
2019-04-05T17:36:53.528Z,76.95
2019-04-05T17:39:20.135Z,77.59
2019-04-05T17:41:46.811Z,76.97
2019-04-05T17:44:13.423Z,76.95
2019-04-05T17:46:40.030Z,77.39
2019-04-05T17:49:06.843Z,77.20
2019-04-05T17:51:33.434Z,76.32
2019-04-05T17:54:00.134Z,76.22
2019-04-05T17:56:27.046Z,77.05
2019-04-05T17:58:53.757Z,76.96
2019-04-05T18:01:20.458Z,76.65
2019-04-05T18:03:47.180Z,77.29
2019-04-05T18:06:13.856Z,78.08
2019-04-05T18:08:40.494Z,78.05
2019-04-05T18:11:07.229Z,77.70
2019-04-05T18:13:33.837Z,77.79
2019-04-05T18:16:00.494Z,77.67
2019-04-05T18:18:27.185Z,77.96
2019-04-05T18:20:53.827Z,77.85
2019-04-05T18:23:25.256Z,77.37
2019-04-05T18:25:49.050Z,78.08
2019-04-05T18:28:15.647Z,77.33
2019-04-05T18:30:42.317Z,77.59
2019-04-05T18:33:08.998Z,77.43
2019-04-05T18:35:35.655Z,77.42
2019-04-05T18:38:02.356Z,76.24
2019-04-05T18:40:39.557Z,76.73
2019-04-05T18:42:57.695Z,77.00
2019-04-05T18:45:24.403Z,76.63
2019-04-05T18:47:51.115Z,76.82
2019-04-05T18:50:17.890Z,76.72
2019-04-05T18:52:44.513Z,75.74
2019-04-05T18:55:11.333Z,76.39
2019-04-05T18:57:37.955Z,76.25
2019-04-05T19:00:06.439Z,75.28
2019-04-05T19:02:33.133Z,74.96
2019-04-05T19:04:59.860Z,75.49
2019-04-05T19:07:26.555Z,75.56
2019-04-05T19:09:53.326Z,76.19
2019-04-05T19:12:19.978Z,76.46
2019-04-05T19:14:46.653Z,76.46
2019-04-05T19:17:23.371Z,76.62
2019-04-05T19:19:41.891Z,75.83
2019-04-05T19:22:08.540Z,76.82
2019-04-05T19:24:35.323Z,77.48
2019-04-05T19:27:03.050Z,76.22
2019-04-05T19:29:29.812Z,76.52
2019-04-05T19:49:16.674Z,77.38
2019-04-05T19:51:43.394Z,77.09
2019-04-05T19:54:10.073Z,77.14
2019-04-05T19:56:36.757Z,76.40
2019-04-05T19:59:03.798Z,77.71
2019-04-05T20:01:30.522Z,77.80
2019-04-05T20:03:57.107Z,77.32
2019-04-05T20:06:23.797Z,77.47
2019-04-05T20:08:50.492Z,77.17
2019-04-05T20:11:18.115Z,77.63
2019-04-05T20:13:44.968Z,77.10
2019-04-05T20:16:11.647Z,76.50
2019-04-05T20:18:38.280Z,76.66
2019-04-05T20:21:05.834Z,77.37
2019-04-05T20:23:32.522Z,76.39
2019-04-05T20:25:59.125Z,76.43
2019-04-05T20:28:25.814Z,76.15
2019-04-05T20:30:52.575Z,75.07
2019-04-05T20:33:19.229Z,75.68
2019-04-05T20:35:45.865Z,75.50
2019-04-05T20:38:12.593Z,75.42
2019-04-05T20:40:39.193Z,75.64
2019-04-05T20:43:05.877Z,76.07
2019-04-05T20:45:32.613Z,76.64
2019-04-05T20:47:59.241Z,76.20
2019-04-05T20:50:26.165Z,75.84
2019-04-05T20:52:53.578Z,75.80
2019-04-05T20:55:46.613Z,74.99
2019-04-05T20:58:28.514Z,75.18
2019-04-05T21:00:59.375Z,75.60
2019-04-05T21:03:26.262Z,75.27
2019-04-05T21:05:52.860Z,74.75
2019-04-05T21:08:19.513Z,75.44
2019-04-05T21:10:46.193Z,75.33
2019-04-05T21:13:12.931Z,75.52
2019-04-05T21:15:39.654Z,75.39
2019-04-05T21:18:06.577Z,74.93
2019-04-05T21:20:50.747Z,74.65
2019-04-05T21:23:20.387Z,75.20
2019-04-05T21:25:47.071Z,75.24
2019-04-05T21:28:13.721Z,75.77
2019-04-05T21:30:40.369Z,75.43
2019-04-05T21:33:07.084Z,75.94
2019-04-05T21:35:33.688Z,75.32
2019-04-05T21:38:00.357Z,75.50
2019-04-05T21:40:27.015Z,75.20
2019-04-05T21:42:53.648Z,75.01
2019-04-05T21:45:20.295Z,75.24
2019-04-05T21:47:47.045Z,74.79
2019-04-05T21:50:13.797Z,75.04
2019-04-05T21:52:40.515Z,74.74
2019-04-05T21:55:07.366Z,74.98
2019-04-05T21:57:33.980Z,74.74
2019-04-05T22:00:00.642Z,75.21
2019-04-05T22:02:29.324Z,75.66
2019-04-05T22:04:56.015Z,75.60
2019-04-05T22:07:22.716Z,75.43
2019-04-05T22:09:49.417Z,74.96
2019-04-05T22:12:16.032Z,76.37
2019-04-05T22:14:42.715Z,76.60
2019-04-05T22:17:10.482Z,76.70
2019-04-05T22:19:37.120Z,77.12
2019-04-05T22:22:03.834Z,77.04
2019-04-05T22:24:30.526Z,76.39
2019-04-05T22:27:00.206Z,76.40
2019-04-05T22:29:27.572Z,76.38
2019-04-05T22:31:54.297Z,76.37
2019-04-05T22:34:20.906Z,76.43
2019-04-05T22:36:47.573Z,76.05
2019-04-05T22:39:14.236Z,76.03
2019-04-05T22:41:40.887Z,75.73
2019-04-05T22:44:07.570Z,75.50
2019-04-05T22:46:34.292Z,75.07
2019-04-05T22:49:00.910Z,75.13
2019-04-05T22:51:28.654Z,75.05
2019-04-05T22:53:55.373Z,75.33
2019-04-05T22:56:22.039Z,74.10
2019-04-05T22:58:48.695Z,74.13
2019-04-05T23:01:15.375Z,74.04
2019-04-05T23:03:42.008Z,74.17
2019-04-05T23:06:08.675Z,73.37
2019-04-05T23:08:35.702Z,73.93
2019-04-05T23:11:02.546Z,74.13
2019-04-05T23:13:29.315Z,72.54
2019-04-05T23:15:56.003Z,73.66
2019-04-05T23:18:22.716Z,73.21
2019-04-05T23:20:49.410Z,73.96
2019-04-05T23:23:16.043Z,73.50
2019-04-05T23:25:42.752Z,73.51
2019-04-05T23:28:09.455Z,74.38
2019-04-05T23:30:36.185Z,74.14
2019-04-05T23:33:02.888Z,73.26
2019-04-05T23:35:29.636Z,73.85
2019-04-05T23:37:56.259Z,73.39
2019-04-05T23:40:22.937Z,73.06
2019-04-05T23:42:49.599Z,73.16
2019-04-05T23:45:16.317Z,73.60
2019-04-05T23:47:43.018Z,72.86
2019-04-05T23:50:11.216Z,71.84
2019-04-05T23:52:37.822Z,71.32
2019-04-05T23:55:05.305Z,71.91
2019-04-05T23:57:32.889Z,72.03
2019-04-05T23:59:59.475Z,72.46
